sensor_id;sensor_type;location;lat;lon;timestamp;temperature;humidity
20977;DHT22;10647;51.016;3.720;2022-10-19T00:01:13;13.60;99.90
20977;DHT22;10647;51.016;3.720;2022-10-19T00:03:43;13.60;99.90
20977;DHT22;10647;51.016;3.720;2022-10-19T00:06:25;13.60;99.90
20977;DHT22;10647;51.016;3.720;2022-10-19T00:08:55;13.50;99.90
20977;DHT22;10647;51.016;3.720;2022-10-19T00:11:24;13.50;99.90
20977;DHT22;10647;51.016;3.720;2022-10-19T00:13:52;13.50;99.90
20977;DHT22;10647;51.016;3.720;2022-10-19T00:16:21;13.50;99.90
20977;DHT22;10647;51.016;3.720;2022-10-19T00:18:49;13.50;99.90
20977;DHT22;10647;51.016;3.720;2022-10-19T00:21:18;13.50;99.90
20977;DHT22;10647;51.016;3.720;2022-10-19T00:23:46;13.50;99.90
20977;DHT22;10647;51.016;3.720;2022-10-19T00:26:14;13.50;99.90
20977;DHT22;10647;51.016;3.720;2022-10-19T00:28:42;13.40;99.90
20977;DHT22;10647;51.016;3.720;2022-10-19T00:31:13;13.40;99.90
20977;DHT22;10647;51.016;3.720;2022-10-19T00:33:42;13.40;99.90
20977;DHT22;10647;51.016;3.720;2022-10-19T00:39:14;13.40;99.90
20977;DHT22;10647;51.016;3.720;2022-10-19T00:47:21;13.40;99.90
20977;DHT22;10647;51.016;3.720;2022-10-19T00:49:50;13.30;99.90
20977;DHT22;10647;51.016;3.720;2022-10-19T00:52:21;13.30;99.90
20977;DHT22;10647;51.016;3.720;2022-10-19T00:57:38;13.30;99.90
20977;DHT22;10647;51.016;3.720;2022-10-19T01:00:07;13.30;99.90
20977;DHT22;10647;51.016;3.720;2022-10-19T01:02:35;13.30;99.90
20977;DHT22;10647;51.016;3.720;2022-10-19T01:05:03;13.30;99.90
20977;DHT22;10647;51.016;3.720;2022-10-19T01:07:31;13.30;99.90
20977;DHT22;10647;51.016;3.720;2022-10-19T01:09:59;13.20;99.90
20977;DHT22;10647;51.016;3.720;2022-10-19T01:12:54;13.20;99.90
20977;DHT22;10647;51.016;3.720;2022-10-19T01:15:31;13.20;99.90
20977;DHT22;10647;51.016;3.720;2022-10-19T01:21:20;13.10;99.90
20977;DHT22;10647;51.016;3.720;2022-10-19T01:30:04;13.00;99.90
20977;DHT22;10647;51.016;3.720;2022-10-19T01:32:53;13.00;99.90
20977;DHT22;10647;51.016;3.720;2022-10-19T01:38:23;13.00;99.90
20977;DHT22;10647;51.016;3.720;2022-10-19T01:41:02;13.00;99.90
20977;DHT22;10647;51.016;3.720;2022-10-19T01:43:54;13.00;99.90
20977;DHT22;10647;51.016;3.720;2022-10-19T01:46:42;13.00;99.90
20977;DHT22;10647;51.016;3.720;2022-10-19T01:49:31;12.90;99.90
20977;DHT22;10647;51.016;3.720;2022-10-19T01:51:58;12.90;99.90
20977;DHT22;10647;51.016;3.720;2022-10-19T01:54:28;12.90;99.90
20977;DHT22;10647;51.016;3.720;2022-10-19T01:56:58;12.90;99.90
20977;DHT22;10647;51.016;3.720;2022-10-19T01:59:28;12.90;99.90
20977;DHT22;10647;51.016;3.720;2022-10-19T02:04:46;12.90;99.90
20977;DHT22;10647;51.016;3.720;2022-10-19T02:07:16;12.90;99.90
20977;DHT22;10647;51.016;3.720;2022-10-19T02:09:44;12.90;99.90
20977;DHT22;10647;51.016;3.720;2022-10-19T02:12:12;12.90;99.90
20977;DHT22;10647;51.016;3.720;2022-10-19T02:14:46;12.90;99.90
20977;DHT22;10647;51.016;3.720;2022-10-19T02:17:23;12.90;99.90
20977;DHT22;10647;51.016;3.720;2022-10-19T02:19:45;12.90;99.90
20977;DHT22;10647;51.016;3.720;2022-10-19T02:22:13;12.80;99.90
20977;DHT22;10647;51.016;3.720;2022-10-19T02:24:40;12.80;99.90
20977;DHT22;10647;51.016;3.720;2022-10-19T02:27:08;12.90;99.90
20977;DHT22;10647;51.016;3.720;2022-10-19T02:29:36;12.90;99.90
20977;DHT22;10647;51.016;3.720;2022-10-19T02:32:05;12.80;99.90
20977;DHT22;10647;51.016;3.720;2022-10-19T02:34:33;12.80;99.90
20977;DHT22;10647;51.016;3.720;2022-10-19T02:37:01;12.80;99.90
20977;DHT22;10647;51.016;3.720;2022-10-19T02:39:29;12.80;99.90
20977;DHT22;10647;51.016;3.720;2022-10-19T02:45:32;12.80;99.90
20977;DHT22;10647;51.016;3.720;2022-10-19T02:50:49;12.70;99.90
20977;DHT22;10647;51.016;3.720;2022-10-19T02:53:17;12.70;99.90
20977;DHT22;10647;51.016;3.720;2022-10-19T02:55:47;12.70;99.90
20977;DHT22;10647;51.016;3.720;2022-10-19T02:58:21;12.70;99.90
20977;DHT22;10647;51.016;3.720;2022-10-19T03:00:48;12.70;99.90
20977;DHT22;10647;51.016;3.720;2022-10-19T03:03:16;12.70;99.90
20977;DHT22;10647;51.016;3.720;2022-10-19T03:05:43;12.70;99.90
20977;DHT22;10647;51.016;3.720;2022-10-19T03:08:11;12.70;99.90
20977;DHT22;10647;51.016;3.720;2022-10-19T03:10:38;12.70;99.90
20977;DHT22;10647;51.016;3.720;2022-10-19T03:13:06;12.70;99.90
20977;DHT22;10647;51.016;3.720;2022-10-19T03:15:33;12.70;99.90
20977;DHT22;10647;51.016;3.720;2022-10-19T03:18:01;12.60;99.90
20977;DHT22;10647;51.016;3.720;2022-10-19T03:20:28;12.70;99.90
20977;DHT22;10647;51.016;3.720;2022-10-19T03:22:56;12.70;99.90
20977;DHT22;10647;51.016;3.720;2022-10-19T03:25:23;12.60;99.90
20977;DHT22;10647;51.016;3.720;2022-10-19T03:27:51;12.60;99.90
20977;DHT22;10647;51.016;3.720;2022-10-19T03:30:18;12.60;99.90
20977;DHT22;10647;51.016;3.720;2022-10-19T03:32:46;12.60;99.90
20977;DHT22;10647;51.016;3.720;2022-10-19T03:35:13;12.60;99.90
20977;DHT22;10647;51.016;3.720;2022-10-19T03:37:41;12.60;99.90
20977;DHT22;10647;51.016;3.720;2022-10-19T03:40:09;12.60;99.90
20977;DHT22;10647;51.016;3.720;2022-10-19T03:42:36;12.60;99.90
20977;DHT22;10647;51.016;3.720;2022-10-19T03:45:04;12.60;99.90
20977;DHT22;10647;51.016;3.720;2022-10-19T03:47:32;12.60;99.90
20977;DHT22;10647;51.016;3.720;2022-10-19T03:49:59;12.60;99.90
20977;DHT22;10647;51.016;3.720;2022-10-19T03:52:27;12.60;99.90
20977;DHT22;10647;51.016;3.720;2022-10-19T03:54:54;12.60;99.90
20977;DHT22;10647;51.016;3.720;2022-10-19T03:57:22;12.60;99.90
20977;DHT22;10647;51.016;3.720;2022-10-19T03:59:49;12.50;99.90
20977;DHT22;10647;51.016;3.720;2022-10-19T04:02:18;12.50;99.90
20977;DHT22;10647;51.016;3.720;2022-10-19T04:04:45;12.50;99.90
20977;DHT22;10647;51.016;3.720;2022-10-19T04:07:13;12.50;99.90
20977;DHT22;10647;51.016;3.720;2022-10-19T04:09:40;12.50;99.90
20977;DHT22;10647;51.016;3.720;2022-10-19T04:12:08;12.50;99.90
20977;DHT22;10647;51.016;3.720;2022-10-19T04:14:35;12.50;99.90
20977;DHT22;10647;51.016;3.720;2022-10-19T04:17:03;12.40;99.90
20977;DHT22;10647;51.016;3.720;2022-10-19T04:19:31;12.40;99.90
20977;DHT22;10647;51.016;3.720;2022-10-19T04:21:59;12.40;99.90
20977;DHT22;10647;51.016;3.720;2022-10-19T04:24:27;12.40;99.90
20977;DHT22;10647;51.016;3.720;2022-10-19T04:26:55;12.40;99.90
20977;DHT22;10647;51.016;3.720;2022-10-19T04:29:24;12.40;99.90
20977;DHT22;10647;51.016;3.720;2022-10-19T04:31:52;12.30;99.90
20977;DHT22;10647;51.016;3.720;2022-10-19T04:34:20;12.40;99.90
20977;DHT22;10647;51.016;3.720;2022-10-19T04:36:47;12.30;99.90
20977;DHT22;10647;51.016;3.720;2022-10-19T04:39:15;12.30;99.90
20977;DHT22;10647;51.016;3.720;2022-10-19T04:41:42;12.30;99.90
20977;DHT22;10647;51.016;3.720;2022-10-19T04:44:10;12.30;99.90
20977;DHT22;10647;51.016;3.720;2022-10-19T04:46:37;12.20;99.90
20977;DHT22;10647;51.016;3.720;2022-10-19T04:49:05;12.30;99.90
20977;DHT22;10647;51.016;3.720;2022-10-19T04:51:33;12.20;99.90
20977;DHT22;10647;51.016;3.720;2022-10-19T04:54:02;12.30;99.90
20977;DHT22;10647;51.016;3.720;2022-10-19T04:56:30;12.20;99.90
20977;DHT22;10647;51.016;3.720;2022-10-19T04:58:59;12.20;99.90
20977;DHT22;10647;51.016;3.720;2022-10-19T05:01:28;12.20;99.90
20977;DHT22;10647;51.016;3.720;2022-10-19T05:03:58;12.20;99.90
20977;DHT22;10647;51.016;3.720;2022-10-19T05:06:27;12.20;99.90
20977;DHT22;10647;51.016;3.720;2022-10-19T05:08:55;12.20;99.90
20977;DHT22;10647;51.016;3.720;2022-10-19T05:11:23;12.10;99.90
20977;DHT22;10647;51.016;3.720;2022-10-19T05:13:50;12.10;99.90
20977;DHT22;10647;51.016;3.720;2022-10-19T05:16:20;12.10;99.90
20977;DHT22;10647;51.016;3.720;2022-10-19T05:18:49;12.10;99.90
20977;DHT22;10647;51.016;3.720;2022-10-19T05:21:18;12.10;99.90
20977;DHT22;10647;51.016;3.720;2022-10-19T05:23:52;12.10;99.90
20977;DHT22;10647;51.016;3.720;2022-10-19T05:26:21;12.10;99.90
20977;DHT22;10647;51.016;3.720;2022-10-19T05:28:51;12.00;99.90
20977;DHT22;10647;51.016;3.720;2022-10-19T05:31:24;12.00;99.90
20977;DHT22;10647;51.016;3.720;2022-10-19T05:33:52;12.00;99.90
20977;DHT22;10647;51.016;3.720;2022-10-19T05:36:27;12.00;99.90
20977;DHT22;10647;51.016;3.720;2022-10-19T05:38:56;12.00;99.90
20977;DHT22;10647;51.016;3.720;2022-10-19T05:41:25;12.00;99.90
20977;DHT22;10647;51.016;3.720;2022-10-19T05:43:57;12.00;99.90
20977;DHT22;10647;51.016;3.720;2022-10-19T05:46:27;12.00;99.90
20977;DHT22;10647;51.016;3.720;2022-10-19T05:48:58;12.00;99.90
20977;DHT22;10647;51.016;3.720;2022-10-19T05:51:27;11.90;99.90
20977;DHT22;10647;51.016;3.720;2022-10-19T05:53:55;12.00;99.90
20977;DHT22;10647;51.016;3.720;2022-10-19T05:56:25;11.90;99.90
20977;DHT22;10647;51.016;3.720;2022-10-19T05:58:55;11.90;99.90
20977;DHT22;10647;51.016;3.720;2022-10-19T06:01:23;11.90;99.90
20977;DHT22;10647;51.016;3.720;2022-10-19T06:03:51;11.90;99.90
20977;DHT22;10647;51.016;3.720;2022-10-19T06:06:20;11.90;99.90
20977;DHT22;10647;51.016;3.720;2022-10-19T06:08:49;11.90;99.90
20977;DHT22;10647;51.016;3.720;2022-10-19T06:11:20;11.90;99.90
20977;DHT22;10647;51.016;3.720;2022-10-19T06:13:49;11.90;99.90
20977;DHT22;10647;51.016;3.720;2022-10-19T06:16:18;11.90;99.90
20977;DHT22;10647;51.016;3.720;2022-10-19T06:18:46;11.90;99.90
20977;DHT22;10647;51.016;3.720;2022-10-19T06:21:16;11.90;99.90
20977;DHT22;10647;51.016;3.720;2022-10-19T06:23:48;12.00;99.90
20977;DHT22;10647;51.016;3.720;2022-10-19T06:26:13;12.00;99.90
20977;DHT22;10647;51.016;3.720;2022-10-19T06:28:42;11.90;99.90
20977;DHT22;10647;51.016;3.720;2022-10-19T06:31:10;11.90;99.90
20977;DHT22;10647;51.016;3.720;2022-10-19T06:33:39;11.90;99.90
20977;DHT22;10647;51.016;3.720;2022-10-19T06:36:08;12.00;99.90
20977;DHT22;10647;51.016;3.720;2022-10-19T06:38:36;12.00;99.90
20977;DHT22;10647;51.016;3.720;2022-10-19T06:41:04;12.00;99.90
20977;DHT22;10647;51.016;3.720;2022-10-19T06:43:32;12.10;99.90
20977;DHT22;10647;51.016;3.720;2022-10-19T06:46:04;12.00;99.90
20977;DHT22;10647;51.016;3.720;2022-10-19T06:48:32;12.10;99.90
20977;DHT22;10647;51.016;3.720;2022-10-19T06:51:02;12.20;99.90
20977;DHT22;10647;51.016;3.720;2022-10-19T06:53:30;12.20;99.90
20977;DHT22;10647;51.016;3.720;2022-10-19T06:56:01;12.30;99.90
20977;DHT22;10647;51.016;3.720;2022-10-19T06:58:29;12.30;99.90
20977;DHT22;10647;51.016;3.720;2022-10-19T07:00:58;12.40;99.90
20977;DHT22;10647;51.016;3.720;2022-10-19T07:03:27;12.40;99.90
20977;DHT22;10647;51.016;3.720;2022-10-19T07:05:57;12.50;99.90
20977;DHT22;10647;51.016;3.720;2022-10-19T07:08:26;12.60;99.90
20977;DHT22;10647;51.016;3.720;2022-10-19T07:10:56;12.70;99.90
20977;DHT22;10647;51.016;3.720;2022-10-19T07:13:26;12.80;99.90
20977;DHT22;10647;51.016;3.720;2022-10-19T07:18:45;12.90;99.90
20977;DHT22;10647;51.016;3.720;2022-10-19T07:21:14;13.00;99.90
20977;DHT22;10647;51.016;3.720;2022-10-19T07:23:43;13.10;99.90
20977;DHT22;10647;51.016;3.720;2022-10-19T07:26:15;13.20;99.90
20977;DHT22;10647;51.016;3.720;2022-10-19T07:28:45;13.30;99.90
20977;DHT22;10647;51.016;3.720;2022-10-19T07:31:16;13.30;99.90
20977;DHT22;10647;51.016;3.720;2022-10-19T07:33:44;13.40;99.90
20977;DHT22;10647;51.016;3.720;2022-10-19T07:36:12;13.50;99.90
20977;DHT22;10647;51.016;3.720;2022-10-19T07:38:40;13.50;99.90
20977;DHT22;10647;51.016;3.720;2022-10-19T07:41:10;13.60;99.90
20977;DHT22;10647;51.016;3.720;2022-10-19T07:43:42;13.70;99.90
20977;DHT22;10647;51.016;3.720;2022-10-19T07:46:16;13.80;99.90
20977;DHT22;10647;51.016;3.720;2022-10-19T07:48:41;13.90;99.90
20977;DHT22;10647;51.016;3.720;2022-10-19T07:51:10;14.00;99.90
20977;DHT22;10647;51.016;3.720;2022-10-19T07:53:38;14.10;99.90
20977;DHT22;10647;51.016;3.720;2022-10-19T07:56:08;14.10;99.90
20977;DHT22;10647;51.016;3.720;2022-10-19T07:58:37;14.30;99.90
20977;DHT22;10647;51.016;3.720;2022-10-19T08:01:08;14.30;99.90
20977;DHT22;10647;51.016;3.720;2022-10-19T08:03:36;14.30;99.90
20977;DHT22;10647;51.016;3.720;2022-10-19T08:06:06;14.40;99.90
20977;DHT22;10647;51.016;3.720;2022-10-19T08:08:34;14.40;99.90
20977;DHT22;10647;51.016;3.720;2022-10-19T08:13:56;14.30;99.90
20977;DHT22;10647;51.016;3.720;2022-10-19T08:16:32;14.30;99.90
20977;DHT22;10647;51.016;3.720;2022-10-19T08:21:54;14.30;99.90
20977;DHT22;10647;51.016;3.720;2022-10-19T08:24:21;14.30;99.90
20977;DHT22;10647;51.016;3.720;2022-10-19T08:26:49;14.40;99.90
20977;DHT22;10647;51.016;3.720;2022-10-19T08:29:18;14.50;99.90
20977;DHT22;10647;51.016;3.720;2022-10-19T08:31:47;14.60;99.90
20977;DHT22;10647;51.016;3.720;2022-10-19T08:34:15;14.70;99.90
20977;DHT22;10647;51.016;3.720;2022-10-19T08:36:43;14.70;99.90
20977;DHT22;10647;51.016;3.720;2022-10-19T08:39:11;14.80;99.90
20977;DHT22;10647;51.016;3.720;2022-10-19T08:42:24;14.80;99.90
20977;DHT22;10647;51.016;3.720;2022-10-19T08:47:09;15.00;99.90
20977;DHT22;10647;51.016;3.720;2022-10-19T08:49:34;15.00;99.90
20977;DHT22;10647;51.016;3.720;2022-10-19T08:52:23;15.10;99.90
20977;DHT22;10647;51.016;3.720;2022-10-19T08:54:56;15.10;99.90
20977;DHT22;10647;51.016;3.720;2022-10-19T08:57:33;15.20;99.90
20977;DHT22;10647;51.016;3.720;2022-10-19T09:00:19;15.40;99.90
20977;DHT22;10647;51.016;3.720;2022-10-19T09:08:21;15.60;99.90
20977;DHT22;10647;51.016;3.720;2022-10-19T09:10:50;15.60;99.90
20977;DHT22;10647;51.016;3.720;2022-10-19T09:13:42;15.70;99.90
20977;DHT22;10647;51.016;3.720;2022-10-19T09:16:15;15.80;99.90
20977;DHT22;10647;51.016;3.720;2022-10-19T09:18:44;15.90;99.90
20977;DHT22;10647;51.016;3.720;2022-10-19T09:21:23;15.90;99.90
20977;DHT22;10647;51.016;3.720;2022-10-19T09:24:27;16.10;99.90
20977;DHT22;10647;51.016;3.720;2022-10-19T09:26:48;16.10;99.90
20977;DHT22;10647;51.016;3.720;2022-10-19T09:32:02;16.30;99.90
20977;DHT22;10647;51.016;3.720;2022-10-19T09:37:19;16.40;99.90
20977;DHT22;10647;51.016;3.720;2022-10-19T09:39:47;16.50;99.90
20977;DHT22;10647;51.016;3.720;2022-10-19T09:42:29;16.60;99.90
20977;DHT22;10647;51.016;3.720;2022-10-19T09:45:00;16.60;99.90
20977;DHT22;10647;51.016;3.720;2022-10-19T09:47:37;16.70;99.90
20977;DHT22;10647;51.016;3.720;2022-10-19T09:50:16;16.70;99.90
20977;DHT22;10647;51.016;3.720;2022-10-19T09:52:46;16.80;99.90
20977;DHT22;10647;51.016;3.720;2022-10-19T09:57:47;16.80;99.90
20977;DHT22;10647;51.016;3.720;2022-10-19T10:03:34;16.90;99.90
20977;DHT22;10647;51.016;3.720;2022-10-19T10:06:01;17.10;99.90
20977;DHT22;10647;51.016;3.720;2022-10-19T10:08:30;17.10;99.90
20977;DHT22;10647;51.016;3.720;2022-10-19T10:11:14;17.20;99.90
20977;DHT22;10647;51.016;3.720;2022-10-19T10:13:49;17.30;99.90
20977;DHT22;10647;51.016;3.720;2022-10-19T10:16:14;17.40;99.90
20977;DHT22;10647;51.016;3.720;2022-10-19T10:18:50;17.40;99.90
20977;DHT22;10647;51.016;3.720;2022-10-19T10:21:48;17.50;99.90
20977;DHT22;10647;51.016;3.720;2022-10-19T10:24:18;17.50;99.90
20977;DHT22;10647;51.016;3.720;2022-10-19T10:26:49;17.60;99.90
20977;DHT22;10647;51.016;3.720;2022-10-19T10:29:25;17.60;99.90
20977;DHT22;10647;51.016;3.720;2022-10-19T10:32:12;17.60;99.90
20977;DHT22;10647;51.016;3.720;2022-10-19T10:34:42;17.60;99.90
20977;DHT22;10647;51.016;3.720;2022-10-19T10:40:05;17.70;99.90
20977;DHT22;10647;51.016;3.720;2022-10-19T10:42:43;17.80;99.90
20977;DHT22;10647;51.016;3.720;2022-10-19T10:45:23;17.90;99.90
20977;DHT22;10647;51.016;3.720;2022-10-19T10:47:52;17.90;99.90
20977;DHT22;10647;51.016;3.720;2022-10-19T10:50:30;18.00;99.90
20977;DHT22;10647;51.016;3.720;2022-10-19T10:53:27;18.20;99.90
20977;DHT22;10647;51.016;3.720;2022-10-19T10:55:53;18.30;99.90
20977;DHT22;10647;51.016;3.720;2022-10-19T10:58:22;18.50;99.90
20977;DHT22;10647;51.016;3.720;2022-10-19T11:00:51;18.60;99.90
20977;DHT22;10647;51.016;3.720;2022-10-19T11:03:24;18.70;99.90
20977;DHT22;10647;51.016;3.720;2022-10-19T11:06:01;18.90;99.90
20977;DHT22;10647;51.016;3.720;2022-10-19T11:11:16;19.10;99.90
20977;DHT22;10647;51.016;3.720;2022-10-19T11:14:27;19.20;99.90
20977;DHT22;10647;51.016;3.720;2022-10-19T11:16:16;19.40;99.90
20977;DHT22;10647;51.016;3.720;2022-10-19T11:19:11;19.50;99.90
20977;DHT22;10647;51.016;3.720;2022-10-19T11:21:41;19.50;99.90
20977;DHT22;10647;51.016;3.720;2022-10-19T11:24:41;19.60;99.90
20977;DHT22;10647;51.016;3.720;2022-10-19T11:35:58;19.60;99.90
20977;DHT22;10647;51.016;3.720;2022-10-19T11:38:33;19.50;99.90
20977;DHT22;10647;51.016;3.720;2022-10-19T11:43:52;19.60;99.90
20977;DHT22;10647;51.016;3.720;2022-10-19T11:46:27;19.60;99.90
20977;DHT22;10647;51.016;3.720;2022-10-19T11:59:53;19.70;99.90
20977;DHT22;10647;51.016;3.720;2022-10-19T12:05:34;19.80;99.90
20977;DHT22;10647;51.016;3.720;2022-10-19T12:10:55;19.80;99.90
20977;DHT22;10647;51.016;3.720;2022-10-19T12:13:44;19.90;99.90
20977;DHT22;10647;51.016;3.720;2022-10-19T12:15:52;19.90;99.90
20977;DHT22;10647;51.016;3.720;2022-10-19T12:18:42;19.90;99.90
20977;DHT22;10647;51.016;3.720;2022-10-19T12:21:13;19.90;99.90
20977;DHT22;10647;51.016;3.720;2022-10-19T12:23:43;19.90;99.90
20977;DHT22;10647;51.016;3.720;2022-10-19T12:26:14;19.90;99.90
20977;DHT22;10647;51.016;3.720;2022-10-19T12:28:48;20.00;99.90
20977;DHT22;10647;51.016;3.720;2022-10-19T12:31:16;20.00;99.90
20977;DHT22;10647;51.016;3.720;2022-10-19T12:33:57;20.00;99.90
20977;DHT22;10647;51.016;3.720;2022-10-19T12:36:53;20.00;99.90
20977;DHT22;10647;51.016;3.720;2022-10-19T12:39:38;20.00;99.90
20977;DHT22;10647;51.016;3.720;2022-10-19T12:45:10;21.20;99.90
20977;DHT22;10647;51.016;3.720;2022-10-19T12:47:40;23.90;99.90
20977;DHT22;10647;51.016;3.720;2022-10-19T12:50:09;25.50;99.90
20977;DHT22;10647;51.016;3.720;2022-10-19T12:52:48;26.40;99.90
20977;DHT22;10647;51.016;3.720;2022-10-19T12:58:05;28.00;99.90
20977;DHT22;10647;51.016;3.720;2022-10-19T13:00:36;28.60;99.90
20977;DHT22;10647;51.016;3.720;2022-10-19T13:05:41;29.40;99.70
20977;DHT22;10647;51.016;3.720;2022-10-19T13:08:21;29.80;97.70
20977;DHT22;10647;51.016;3.720;2022-10-19T13:10:43;30.10;96.20
20977;DHT22;10647;51.016;3.720;2022-10-19T13:24:35;28.40;93.90
20977;DHT22;10647;51.016;3.720;2022-10-19T13:29:39;29.00;93.40
20977;DHT22;10647;51.016;3.720;2022-10-19T13:43:18;29.90;91.30
20977;DHT22;10647;51.016;3.720;2022-10-19T13:48:41;29.30;91.00
20977;DHT22;10647;51.016;3.720;2022-10-19T13:53:57;28.80;90.40
20977;DHT22;10647;51.016;3.720;2022-10-19T13:59:44;27.30;91.70
20977;DHT22;10647;51.016;3.720;2022-10-19T14:10:25;27.70;92.00
20977;DHT22;10647;51.016;3.720;2022-10-19T14:12:53;27.50;91.90
20977;DHT22;10647;51.016;3.720;2022-10-19T14:15:26;27.30;92.00
20977;DHT22;10647;51.016;3.720;2022-10-19T14:17:55;26.90;92.20
20977;DHT22;10647;51.016;3.720;2022-10-19T14:20:32;26.20;92.50
20977;DHT22;10647;51.016;3.720;2022-10-19T14:23:21;25.80;93.00
20977;DHT22;10647;51.016;3.720;2022-10-19T14:25:50;26.00;93.20
20977;DHT22;10647;51.016;3.720;2022-10-19T14:28:18;26.30;93.00
20977;DHT22;10647;51.016;3.720;2022-10-19T14:31:03;26.20;92.80
20977;DHT22;10647;51.016;3.720;2022-10-19T14:33:28;26.20;93.00
20977;DHT22;10647;51.016;3.720;2022-10-19T14:35:57;26.30;93.00
20977;DHT22;10647;51.016;3.720;2022-10-19T14:38:36;26.40;92.80
20977;DHT22;10647;51.016;3.720;2022-10-19T14:40:56;26.10;92.90
20977;DHT22;10647;51.016;3.720;2022-10-19T14:43:26;25.70;93.20
20977;DHT22;10647;51.016;3.720;2022-10-19T14:46:08;25.30;93.40
20977;DHT22;10647;51.016;3.720;2022-10-19T14:48:39;25.10;93.70
20977;DHT22;10647;51.016;3.720;2022-10-19T14:51:13;24.80;93.80
20977;DHT22;10647;51.016;3.720;2022-10-19T14:53:43;24.40;94.10
20977;DHT22;10647;51.016;3.720;2022-10-19T14:58:45;23.70;94.80
20977;DHT22;10647;51.016;3.720;2022-10-19T15:01:15;23.40;95.10
20977;DHT22;10647;51.016;3.720;2022-10-19T15:03:44;23.10;95.40
20977;DHT22;10647;51.016;3.720;2022-10-19T15:06:20;22.80;95.80
20977;DHT22;10647;51.016;3.720;2022-10-19T15:08:55;22.60;96.00
20977;DHT22;10647;51.016;3.720;2022-10-19T15:11:38;22.50;96.30
20977;DHT22;10647;51.016;3.720;2022-10-19T15:14:11;22.30;96.70
20977;DHT22;10647;51.016;3.720;2022-10-19T15:16:42;22.20;96.90
20977;DHT22;10647;51.016;3.720;2022-10-19T15:19:16;22.20;97.20
20977;DHT22;10647;51.016;3.720;2022-10-19T15:21:44;22.10;97.40
20977;DHT22;10647;51.016;3.720;2022-10-19T15:24:24;22.10;97.40
20977;DHT22;10647;51.016;3.720;2022-10-19T15:26:52;22.10;97.60
20977;DHT22;10647;51.016;3.720;2022-10-19T15:29:22;22.20;97.70
20977;DHT22;10647;51.016;3.720;2022-10-19T15:31:50;22.20;97.80
20977;DHT22;10647;51.016;3.720;2022-10-19T15:34:22;22.30;97.80
20977;DHT22;10647;51.016;3.720;2022-10-19T15:37:00;22.30;97.80
20977;DHT22;10647;51.016;3.720;2022-10-19T15:39:28;22.20;97.90
20977;DHT22;10647;51.016;3.720;2022-10-19T15:41:54;21.90;98.10
20977;DHT22;10647;51.016;3.720;2022-10-19T15:44:41;21.70;98.30
20977;DHT22;10647;51.016;3.720;2022-10-19T15:47:17;21.50;98.50
20977;DHT22;10647;51.016;3.720;2022-10-19T15:52:15;21.00;99.30
20977;DHT22;10647;51.016;3.720;2022-10-19T15:54:48;20.80;99.50
20977;DHT22;10647;51.016;3.720;2022-10-19T15:57:32;20.60;99.70
20977;DHT22;10647;51.016;3.720;2022-10-19T16:00:15;20.50;99.90
20977;DHT22;10647;51.016;3.720;2022-10-19T16:02:44;20.30;99.90
20977;DHT22;10647;51.016;3.720;2022-10-19T16:05:12;20.00;99.90
20977;DHT22;10647;51.016;3.720;2022-10-19T16:10:28;19.80;99.90
20977;DHT22;10647;51.016;3.720;2022-10-19T16:12:55;19.70;99.90
20977;DHT22;10647;51.016;3.720;2022-10-19T16:15:23;19.50;99.90
20977;DHT22;10647;51.016;3.720;2022-10-19T16:17:55;19.50;99.90
20977;DHT22;10647;51.016;3.720;2022-10-19T16:20:24;19.40;99.90
20977;DHT22;10647;51.016;3.720;2022-10-19T16:22:51;19.20;99.90
20977;DHT22;10647;51.016;3.720;2022-10-19T16:25:19;19.20;99.90
20977;DHT22;10647;51.016;3.720;2022-10-19T16:27:52;19.00;99.90
20977;DHT22;10647;51.016;3.720;2022-10-19T16:30:20;18.90;99.90
20977;DHT22;10647;51.016;3.720;2022-10-19T16:32:48;18.80;99.90
20977;DHT22;10647;51.016;3.720;2022-10-19T16:35:15;18.70;99.90
20977;DHT22;10647;51.016;3.720;2022-10-19T16:37:43;18.70;99.90
20977;DHT22;10647;51.016;3.720;2022-10-19T16:40:10;18.50;99.90
20977;DHT22;10647;51.016;3.720;2022-10-19T16:42:38;18.40;99.90
20977;DHT22;10647;51.016;3.720;2022-10-19T16:45:06;18.40;99.90
20977;DHT22;10647;51.016;3.720;2022-10-19T16:47:34;18.30;99.90
20977;DHT22;10647;51.016;3.720;2022-10-19T16:50:03;18.20;99.90
20977;DHT22;10647;51.016;3.720;2022-10-19T16:52:32;18.10;99.90
20977;DHT22;10647;51.016;3.720;2022-10-19T16:54:59;18.10;99.90
20977;DHT22;10647;51.016;3.720;2022-10-19T16:57:27;18.00;99.90
20977;DHT22;10647;51.016;3.720;2022-10-19T16:59:54;17.90;99.90
20977;DHT22;10647;51.016;3.720;2022-10-19T17:02:22;17.90;99.90
20977;DHT22;10647;51.016;3.720;2022-10-19T17:04:50;17.80;99.90
20977;DHT22;10647;51.016;3.720;2022-10-19T17:07:17;17.70;99.90
20977;DHT22;10647;51.016;3.720;2022-10-19T17:09:45;17.70;99.90
20977;DHT22;10647;51.016;3.720;2022-10-19T17:12:13;17.60;99.90
20977;DHT22;10647;51.016;3.720;2022-10-19T17:14:41;17.60;99.90
20977;DHT22;10647;51.016;3.720;2022-10-19T17:17:09;17.50;99.90
20977;DHT22;10647;51.016;3.720;2022-10-19T17:19:37;17.50;99.90
20977;DHT22;10647;51.016;3.720;2022-10-19T17:22:05;17.50;99.90
20977;DHT22;10647;51.016;3.720;2022-10-19T17:24:32;17.40;99.90
20977;DHT22;10647;51.016;3.720;2022-10-19T17:27:01;17.40;99.90
20977;DHT22;10647;51.016;3.720;2022-10-19T17:29:29;17.40;99.90
20977;DHT22;10647;51.016;3.720;2022-10-19T17:31:57;17.30;99.90
20977;DHT22;10647;51.016;3.720;2022-10-19T17:34:25;17.30;99.90
20977;DHT22;10647;51.016;3.720;2022-10-19T17:36:54;17.20;99.90
20977;DHT22;10647;51.016;3.720;2022-10-19T17:39:24;17.20;99.90
20977;DHT22;10647;51.016;3.720;2022-10-19T17:41:57;17.20;99.90
20977;DHT22;10647;51.016;3.720;2022-10-19T17:44:28;17.20;99.90
20977;DHT22;10647;51.016;3.720;2022-10-19T17:46:56;17.10;99.90
20977;DHT22;10647;51.016;3.720;2022-10-19T17:49:25;17.10;99.90
20977;DHT22;10647;51.016;3.720;2022-10-19T17:51:53;17.00;99.90
20977;DHT22;10647;51.016;3.720;2022-10-19T17:54:20;17.00;99.90
20977;DHT22;10647;51.016;3.720;2022-10-19T17:56:48;17.00;99.90
20977;DHT22;10647;51.016;3.720;2022-10-19T17:59:18;17.00;99.90
20977;DHT22;10647;51.016;3.720;2022-10-19T18:01:45;16.90;99.90
20977;DHT22;10647;51.016;3.720;2022-10-19T18:04:14;16.90;99.90
20977;DHT22;10647;51.016;3.720;2022-10-19T18:06:41;16.90;99.90
20977;DHT22;10647;51.016;3.720;2022-10-19T18:09:09;16.90;99.90
20977;DHT22;10647;51.016;3.720;2022-10-19T18:11:40;16.80;99.90
20977;DHT22;10647;51.016;3.720;2022-10-19T18:14:10;16.80;99.90
20977;DHT22;10647;51.016;3.720;2022-10-19T18:16:41;16.70;99.90
20977;DHT22;10647;51.016;3.720;2022-10-19T18:19:12;16.70;99.90
20977;DHT22;10647;51.016;3.720;2022-10-19T18:21:42;16.70;99.90
20977;DHT22;10647;51.016;3.720;2022-10-19T18:24:16;16.60;99.90
20977;DHT22;10647;51.016;3.720;2022-10-19T18:27:01;16.60;99.90